sensor_id;sensor_type;location;lat;lon;timestamp;P1;durP1;ratioP1;P2;durP2;ratioP2
47481;SDS011;33219;47.410;9.730;2024-03-08T00:01:21;7.40;;;3.60;;
47481;SDS011;33219;47.410;9.730;2024-03-08T00:03:49;10.67;;;4.57;;
47481;SDS011;33219;47.410;9.730;2024-03-08T00:06:17;10.63;;;4.77;;
47481;SDS011;33219;47.410;9.730;2024-03-08T00:08:45;9.00;;;3.97;;
47481;SDS011;33219;47.410;9.730;2024-03-08T00:11:13;10.57;;;4.50;;
47481;SDS011;33219;47.410;9.730;2024-03-08T00:13:40;9.07;;;4.30;;
47481;SDS011;33219;47.410;9.730;2024-03-08T00:16:08;11.37;;;5.20;;
47481;SDS011;33219;47.410;9.730;2024-03-08T00:18:35;8.90;;;4.17;;
47481;SDS011;33219;47.410;9.730;2024-03-08T00:21:03;7.63;;;4.07;;
47481;SDS011;33219;47.410;9.730;2024-03-08T00:23:31;10.27;;;5.10;;
47481;SDS011;33219;47.410;9.730;2024-03-08T00:25:59;9.00;;;4.33;;
47481;SDS011;33219;47.410;9.730;2024-03-08T00:28:26;7.00;;;4.13;;
47481;SDS011;33219;47.410;9.730;2024-03-08T00:30:54;8.93;;;4.47;;
47481;SDS011;33219;47.410;9.730;2024-03-08T00:33:21;8.13;;;4.07;;
47481;SDS011;33219;47.410;9.730;2024-03-08T00:35:49;8.33;;;4.07;;
47481;SDS011;33219;47.410;9.730;2024-03-08T00:38:16;8.73;;;4.63;;
47481;SDS011;33219;47.410;9.730;2024-03-08T00:40:44;10.20;;;4.90;;
47481;SDS011;33219;47.410;9.730;2024-03-08T00:43:12;11.80;;;4.63;;
47481;SDS011;33219;47.410;9.730;2024-03-08T00:45:41;11.23;;;4.70;;
47481;SDS011;33219;47.410;9.730;2024-03-08T00:48:09;7.90;;;4.23;;
47481;SDS011;33219;47.410;9.730;2024-03-08T00:50:36;7.90;;;4.10;;
47481;SDS011;33219;47.410;9.730;2024-03-08T00:53:04;12.60;;;4.90;;
47481;SDS011;33219;47.410;9.730;2024-03-08T00:55:32;9.07;;;4.77;;
47481;SDS011;33219;47.410;9.730;2024-03-08T00:58:00;10.07;;;4.87;;
47481;SDS011;33219;47.410;9.730;2024-03-08T01:00:28;9.73;;;4.50;;
47481;SDS011;33219;47.410;9.730;2024-03-08T01:02:55;8.27;;;3.93;;
47481;SDS011;33219;47.410;9.730;2024-03-08T01:05:23;9.20;;;4.03;;
47481;SDS011;33219;47.410;9.730;2024-03-08T01:07:51;9.20;;;4.60;;
47481;SDS011;33219;47.410;9.730;2024-03-08T01:10:18;6.60;;;3.77;;
47481;SDS011;33219;47.410;9.730;2024-03-08T01:12:46;8.83;;;4.53;;
47481;SDS011;33219;47.410;9.730;2024-03-08T01:15:13;7.95;;;3.85;;
47481;SDS011;33219;47.410;9.730;2024-03-08T01:17:41;7.00;;;3.37;;
47481;SDS011;33219;47.410;9.730;2024-03-08T01:20:09;7.50;;;4.10;;
47481;SDS011;33219;47.410;9.730;2024-03-08T01:22:38;9.40;;;4.00;;
47481;SDS011;33219;47.410;9.730;2024-03-08T01:25:06;7.10;;;4.10;;
47481;SDS011;33219;47.410;9.730;2024-03-08T01:27:34;9.10;;;3.93;;
47481;SDS011;33219;47.410;9.730;2024-03-08T01:30:02;7.43;;;3.80;;
47481;SDS011;33219;47.410;9.730;2024-03-08T01:32:30;8.77;;;3.63;;
47481;SDS011;33219;47.410;9.730;2024-03-08T01:34:58;6.73;;;3.60;;
47481;SDS011;33219;47.410;9.730;2024-03-08T01:37:25;7.57;;;3.60;;
47481;SDS011;33219;47.410;9.730;2024-03-08T01:39:54;8.97;;;3.77;;
47481;SDS011;33219;47.410;9.730;2024-03-08T01:42:22;6.47;;;3.40;;
47481;SDS011;33219;47.410;9.730;2024-03-08T01:44:50;6.03;;;3.20;;
47481;SDS011;33219;47.410;9.730;2024-03-08T01:47:18;6.70;;;3.40;;
47481;SDS011;33219;47.410;9.730;2024-03-08T01:49:47;7.90;;;4.03;;
47481;SDS011;33219;47.410;9.730;2024-03-08T01:52:16;7.43;;;3.50;;
47481;SDS011;33219;47.410;9.730;2024-03-08T01:54:48;7.03;;;3.53;;
47481;SDS011;33219;47.410;9.730;2024-03-08T01:57:16;8.07;;;4.17;;
47481;SDS011;33219;47.410;9.730;2024-03-08T01:59:44;7.97;;;4.23;;
47481;SDS011;33219;47.410;9.730;2024-03-08T02:02:14;7.10;;;3.40;;
47481;SDS011;33219;47.410;9.730;2024-03-08T02:04:44;7.22;;;3.35;;
47481;SDS011;33219;47.410;9.730;2024-03-08T02:07:12;7.40;;;3.93;;
47481;SDS011;33219;47.410;9.730;2024-03-08T02:09:39;7.90;;;3.67;;
47481;SDS011;33219;47.410;9.730;2024-03-08T02:12:07;6.17;;;3.47;;
47481;SDS011;33219;47.410;9.730;2024-03-08T02:14:35;6.57;;;3.50;;
47481;SDS011;33219;47.410;9.730;2024-03-08T02:17:02;9.07;;;4.30;;
47481;SDS011;33219;47.410;9.730;2024-03-08T02:19:30;10.40;;;4.37;;
47481;SDS011;33219;47.410;9.730;2024-03-08T02:21:58;9.47;;;4.60;;
47481;SDS011;33219;47.410;9.730;2024-03-08T02:24:28;9.83;;;4.33;;
47481;SDS011;33219;47.410;9.730;2024-03-08T02:26:56;8.00;;;4.30;;
47481;SDS011;33219;47.410;9.730;2024-03-08T02:29:23;9.77;;;4.37;;
47481;SDS011;33219;47.410;9.730;2024-03-08T02:31:51;7.33;;;3.43;;
47481;SDS011;33219;47.410;9.730;2024-03-08T02:34:19;6.40;;;2.97;;
47481;SDS011;33219;47.410;9.730;2024-03-08T02:36:46;7.40;;;3.20;;
47481;SDS011;33219;47.410;9.730;2024-03-08T02:39:14;6.70;;;3.40;;
47481;SDS011;33219;47.410;9.730;2024-03-08T02:41:41;5.53;;;3.07;;
47481;SDS011;33219;47.410;9.730;2024-03-08T02:44:09;6.67;;;3.20;;
47481;SDS011;33219;47.410;9.730;2024-03-08T02:46:37;8.80;;;3.10;;
47481;SDS011;33219;47.410;9.730;2024-03-08T02:49:05;8.10;;;3.33;;
47481;SDS011;33219;47.410;9.730;2024-03-08T02:51:33;4.83;;;3.10;;
47481;SDS011;33219;47.410;9.730;2024-03-08T02:54:01;5.70;;;3.10;;
47481;SDS011;33219;47.410;9.730;2024-03-08T02:56:29;7.80;;;3.57;;
47481;SDS011;33219;47.410;9.730;2024-03-08T02:58:59;7.10;;;3.80;;
47481;SDS011;33219;47.410;9.730;2024-03-08T03:01:26;7.47;;;4.27;;
47481;SDS011;33219;47.410;9.730;2024-03-08T03:03:54;7.13;;;3.80;;
47481;SDS011;33219;47.410;9.730;2024-03-08T03:06:21;9.27;;;4.60;;
47481;SDS011;33219;47.410;9.730;2024-03-08T03:08:49;10.90;;;4.70;;
47481;SDS011;33219;47.410;9.730;2024-03-08T03:11:17;9.57;;;4.90;;
47481;SDS011;33219;47.410;9.730;2024-03-08T03:13:44;9.97;;;5.40;;
47481;SDS011;33219;47.410;9.730;2024-03-08T03:16:17;10.70;;;4.93;;
47481;SDS011;33219;47.410;9.730;2024-03-08T03:18:45;8.45;;;4.20;;
47481;SDS011;33219;47.410;9.730;2024-03-08T03:21:13;11.07;;;5.60;;
47481;SDS011;33219;47.410;9.730;2024-03-08T03:23:41;8.60;;;4.67;;
47481;SDS011;33219;47.410;9.730;2024-03-08T03:26:09;11.50;;;5.17;;
47481;SDS011;33219;47.410;9.730;2024-03-08T03:28:39;10.83;;;5.33;;
47481;SDS011;33219;47.410;9.730;2024-03-08T03:31:07;12.47;;;4.93;;
47481;SDS011;33219;47.410;9.730;2024-03-08T03:33:36;8.53;;;4.10;;
47481;SDS011;33219;47.410;9.730;2024-03-08T03:36:04;8.00;;;4.00;;
47481;SDS011;33219;47.410;9.730;2024-03-08T03:38:31;7.50;;;3.87;;
47481;SDS011;33219;47.410;9.730;2024-03-08T03:41:00;7.57;;;3.63;;
47481;SDS011;33219;47.410;9.730;2024-03-08T03:43:29;9.27;;;3.50;;
47481;SDS011;33219;47.410;9.730;2024-03-08T03:45:57;5.67;;;3.33;;
47481;SDS011;33219;47.410;9.730;2024-03-08T03:48:24;7.60;;;3.53;;
47481;SDS011;33219;47.410;9.730;2024-03-08T03:50:52;6.30;;;3.43;;
47481;SDS011;33219;47.410;9.730;2024-03-08T03:53:19;8.50;;;3.47;;
47481;SDS011;33219;47.410;9.730;2024-03-08T03:55:47;7.77;;;3.67;;
47481;SDS011;33219;47.410;9.730;2024-03-08T03:58:15;7.07;;;3.70;;
47481;SDS011;33219;47.410;9.730;2024-03-08T04:00:44;7.07;;;3.70;;
47481;SDS011;33219;47.410;9.730;2024-03-08T04:03:11;9.27;;;4.03;;
47481;SDS011;33219;47.410;9.730;2024-03-08T04:05:39;8.93;;;4.10;;
47481;SDS011;33219;47.410;9.730;2024-03-08T04:08:07;11.03;;;4.87;;
47481;SDS011;33219;47.410;9.730;2024-03-08T04:10:34;8.97;;;4.37;;
47481;SDS011;33219;47.410;9.730;2024-03-08T04:13:02;11.70;;;5.07;;
47481;SDS011;33219;47.410;9.730;2024-03-08T04:15:30;12.10;;;5.50;;
47481;SDS011;33219;47.410;9.730;2024-03-08T04:17:57;11.67;;;5.03;;
47481;SDS011;33219;47.410;9.730;2024-03-08T04:20:26;10.87;;;5.53;;
47481;SDS011;33219;47.410;9.730;2024-03-08T04:22:53;11.67;;;5.63;;
47481;SDS011;33219;47.410;9.730;2024-03-08T04:25:22;11.00;;;5.30;;
47481;SDS011;33219;47.410;9.730;2024-03-08T04:27:49;11.43;;;5.70;;
47481;SDS011;33219;47.410;9.730;2024-03-08T04:30:18;11.17;;;5.90;;
47481;SDS011;33219;47.410;9.730;2024-03-08T04:32:47;11.13;;;6.07;;
47481;SDS011;33219;47.410;9.730;2024-03-08T04:35:14;11.73;;;6.43;;
47481;SDS011;33219;47.410;9.730;2024-03-08T04:37:42;15.20;;;6.10;;
47481;SDS011;33219;47.410;9.730;2024-03-08T04:40:11;13.43;;;5.97;;
47481;SDS011;33219;47.410;9.730;2024-03-08T04:42:39;12.97;;;6.13;;
47481;SDS011;33219;47.410;9.730;2024-03-08T04:45:07;14.37;;;6.17;;
47481;SDS011;33219;47.410;9.730;2024-03-08T04:47:36;14.10;;;6.63;;
47481;SDS011;33219;47.410;9.730;2024-03-08T04:50:04;10.43;;;5.70;;
47481;SDS011;33219;47.410;9.730;2024-03-08T04:52:34;15.50;;;5.60;;
47481;SDS011;33219;47.410;9.730;2024-03-08T04:55:02;13.07;;;5.83;;
47481;SDS011;33219;47.410;9.730;2024-03-08T04:57:33;10.77;;;5.10;;
47481;SDS011;33219;47.410;9.730;2024-03-08T05:00:01;13.03;;;6.07;;
47481;SDS011;33219;47.410;9.730;2024-03-08T05:02:31;11.70;;;5.77;;
47481;SDS011;33219;47.410;9.730;2024-03-08T05:04:58;12.10;;;5.20;;
47481;SDS011;33219;47.410;9.730;2024-03-08T05:07:26;12.07;;;5.93;;
47481;SDS011;33219;47.410;9.730;2024-03-08T05:09:54;11.23;;;5.47;;
47481;SDS011;33219;47.410;9.730;2024-03-08T05:12:22;13.43;;;5.97;;
47481;SDS011;33219;47.410;9.730;2024-03-08T05:14:50;11.97;;;6.20;;
47481;SDS011;33219;47.410;9.730;2024-03-08T05:17:17;15.97;;;6.20;;
47481;SDS011;33219;47.410;9.730;2024-03-08T05:19:45;16.03;;;7.07;;
47481;SDS011;33219;47.410;9.730;2024-03-08T05:22:12;13.93;;;6.33;;
47481;SDS011;33219;47.410;9.730;2024-03-08T05:24:45;13.87;;;6.10;;
47481;SDS011;33219;47.410;9.730;2024-03-08T05:27:09;13.23;;;5.80;;
47481;SDS011;33219;47.410;9.730;2024-03-08T05:29:37;13.60;;;6.47;;
47481;SDS011;33219;47.410;9.730;2024-03-08T05:32:04;15.63;;;7.00;;
47481;SDS011;33219;47.410;9.730;2024-03-08T05:34:32;18.87;;;7.97;;
47481;SDS011;33219;47.410;9.730;2024-03-08T05:37:00;19.40;;;7.80;;
47481;SDS011;33219;47.410;9.730;2024-03-08T05:39:28;21.87;;;10.50;;
47481;SDS011;33219;47.410;9.730;2024-03-08T05:41:56;27.20;;;11.50;;
47481;SDS011;33219;47.410;9.730;2024-03-08T05:44:23;24.57;;;11.27;;
47481;SDS011;33219;47.410;9.730;2024-03-08T05:46:52;23.67;;;11.17;;
47481;SDS011;33219;47.410;9.730;2024-03-08T05:49:20;21.17;;;10.13;;
47481;SDS011;33219;47.410;9.730;2024-03-08T05:51:47;18.27;;;9.27;;
47481;SDS011;33219;47.410;9.730;2024-03-08T05:54:15;17.30;;;9.13;;
47481;SDS011;33219;47.410;9.730;2024-03-08T05:56:42;19.33;;;8.53;;
47481;SDS011;33219;47.410;9.730;2024-03-08T05:59:10;20.30;;;9.90;;
47481;SDS011;33219;47.410;9.730;2024-03-08T06:01:38;25.03;;;12.03;;
47481;SDS011;33219;47.410;9.730;2024-03-08T06:04:06;27.67;;;12.87;;
47481;SDS011;33219;47.410;9.730;2024-03-08T06:06:35;25.93;;;12.53;;
47481;SDS011;33219;47.410;9.730;2024-03-08T06:09:03;30.13;;;13.80;;
47481;SDS011;33219;47.410;9.730;2024-03-08T06:11:35;32.25;;;13.60;;
47481;SDS011;33219;47.410;9.730;2024-03-08T06:14:03;32.33;;;14.30;;
47481;SDS011;33219;47.410;9.730;2024-03-08T06:16:31;30.00;;;14.30;;
47481;SDS011;33219;47.410;9.730;2024-03-08T06:18:59;37.60;;;16.83;;
47481;SDS011;33219;47.410;9.730;2024-03-08T06:21:28;47.43;;;16.97;;
47481;SDS011;33219;47.410;9.730;2024-03-08T06:23:56;34.00;;;14.83;;
47481;SDS011;33219;47.410;9.730;2024-03-08T06:26:24;35.03;;;13.90;;
47481;SDS011;33219;47.410;9.730;2024-03-08T06:29:06;34.47;;;14.90;;
47481;SDS011;33219;47.410;9.730;2024-03-08T06:31:59;28.37;;;12.53;;
47481;SDS011;33219;47.410;9.730;2024-03-08T06:34:16;27.20;;;11.67;;
47481;SDS011;33219;47.410;9.730;2024-03-08T07:02:03;25.68;;;12.23;;
47481;SDS011;33219;47.410;9.730;2024-03-08T07:07:27;28.47;;;12.20;;
47481;SDS011;33219;47.410;9.730;2024-03-08T07:10:20;26.10;;;12.20;;
47481;SDS011;33219;47.410;9.730;2024-03-08T07:13:05;26.07;;;11.48;;
47481;SDS011;33219;47.410;9.730;2024-03-08T07:18:29;26.17;;;12.25;;
47481;SDS011;33219;47.410;9.730;2024-03-08T07:23:54;19.35;;;10.28;;
47481;SDS011;33219;47.410;9.730;2024-03-08T07:26:50;22.22;;;9.88;;
47481;SDS011;33219;47.410;9.730;2024-03-08T07:29:24;20.80;;;9.70;;
47481;SDS011;33219;47.410;9.730;2024-03-08T07:35:47;25.17;;;10.05;;
47481;SDS011;33219;47.410;9.730;2024-03-08T07:38:11;22.27;;;9.98;;
47481;SDS011;33219;47.410;9.730;2024-03-08T07:40:50;21.50;;;10.50;;
47481;SDS011;33219;47.410;9.730;2024-03-08T07:43:24;20.68;;;10.28;;
47481;SDS011;33219;47.410;9.730;2024-03-08T07:49:26;20.23;;;10.23;;
47481;SDS011;33219;47.410;9.730;2024-03-08T07:52:19;24.95;;;11.03;;
47481;SDS011;33219;47.410;9.730;2024-03-08T07:55:19;19.27;;;9.95;;
47481;SDS011;33219;47.410;9.730;2024-03-08T08:04:07;23.77;;;10.50;;
47481;SDS011;33219;47.410;9.730;2024-03-08T08:10:08;19.07;;;10.18;;
47481;SDS011;33219;47.410;9.730;2024-03-08T08:19:12;20.45;;;10.75;;
47481;SDS011;33219;47.410;9.730;2024-03-08T08:32:20;22.90;;;11.60;;
47481;SDS011;33219;47.410;9.730;2024-03-08T08:37:40;17.42;;;9.78;;
47481;SDS011;33219;47.410;9.730;2024-03-08T09:38:51;21.25;;;9.88;;
47481;SDS011;33219;47.410;9.730;2024-03-08T09:41:16;17.82;;;9.15;;
47481;SDS011;33219;47.410;9.730;2024-03-08T09:46:30;16.90;;;9.23;;
47481;SDS011;33219;47.410;9.730;2024-03-08T09:49:06;21.12;;;9.83;;
47481;SDS011;33219;47.410;9.730;2024-03-08T09:51:48;19.67;;;9.70;;
47481;SDS011;33219;47.410;9.730;2024-03-08T09:57:47;17.77;;;8.50;;
47481;SDS011;33219;47.410;9.730;2024-03-08T10:00:13;18.98;;;9.05;;
47481;SDS011;33219;47.410;9.730;2024-03-08T10:03:40;23.07;;;9.08;;
47481;SDS011;33219;47.410;9.730;2024-03-08T10:08:49;22.65;;;10.65;;
47481;SDS011;33219;47.410;9.730;2024-03-08T10:17:29;19.65;;;8.93;;
47481;SDS011;33219;47.410;9.730;2024-03-08T10:20:00;17.32;;;9.00;;
47481;SDS011;33219;47.410;9.730;2024-03-08T10:22:37;15.83;;;7.47;;
47481;SDS011;33219;47.410;9.730;2024-03-08T10:25:09;14.73;;;8.68;;
47481;SDS011;33219;47.410;9.730;2024-03-08T10:27:39;19.70;;;9.43;;
47481;SDS011;33219;47.410;9.730;2024-03-08T10:30:11;19.77;;;10.25;;
47481;SDS011;33219;47.410;9.730;2024-03-08T10:32:43;19.50;;;10.50;;
47481;SDS011;33219;47.410;9.730;2024-03-08T10:35:15;19.60;;;10.05;;
47481;SDS011;33219;47.410;9.730;2024-03-08T10:37:44;21.25;;;9.45;;
47481;SDS011;33219;47.410;9.730;2024-03-08T10:43:28;15.72;;;8.20;;
47481;SDS011;33219;47.410;9.730;2024-03-08T10:54:47;16.25;;;8.30;;
47481;SDS011;33219;47.410;9.730;2024-03-08T10:57:31;14.85;;;8.48;;
47481;SDS011;33219;47.410;9.730;2024-03-08T11:15:47;17.12;;;7.92;;
47481;SDS011;33219;47.410;9.730;2024-03-08T11:18:37;14.10;;;8.08;;
47481;SDS011;33219;47.410;9.730;2024-03-08T11:30:37;15.98;;;8.88;;
47481;SDS011;33219;47.410;9.730;2024-03-08T11:35:38;14.63;;;8.00;;
47481;SDS011;33219;47.410;9.730;2024-03-08T11:38:08;16.70;;;8.40;;
47481;SDS011;33219;47.410;9.730;2024-03-08T11:40:39;13.38;;;7.58;;
47481;SDS011;33219;47.410;9.730;2024-03-08T11:43:16;17.50;;;9.05;;
47481;SDS011;33219;47.410;9.730;2024-03-08T11:45:50;16.27;;;8.50;;
47481;SDS011;33219;47.410;9.730;2024-03-08T11:48:24;15.00;;;8.78;;
47481;SDS011;33219;47.410;9.730;2024-03-08T11:51:02;11.97;;;6.17;;
47481;SDS011;33219;47.410;9.730;2024-03-08T11:53:33;16.60;;;8.63;;
47481;SDS011;33219;47.410;9.730;2024-03-08T11:56:06;13.72;;;7.78;;
47481;SDS011;33219;47.410;9.730;2024-03-08T11:58:39;15.72;;;8.78;;
47481;SDS011;33219;47.410;9.730;2024-03-08T12:01:12;14.58;;;8.48;;
47481;SDS011;33219;47.410;9.730;2024-03-08T12:03:45;17.60;;;9.18;;
47481;SDS011;33219;47.410;9.730;2024-03-08T12:06:16;16.05;;;9.28;;
47481;SDS011;33219;47.410;9.730;2024-03-08T12:08:45;17.00;;;8.65;;
47481;SDS011;33219;47.410;9.730;2024-03-08T12:11:17;16.07;;;8.90;;
47481;SDS011;33219;47.410;9.730;2024-03-08T12:13:47;15.18;;;8.35;;
47481;SDS011;33219;47.410;9.730;2024-03-08T12:16:18;15.32;;;9.70;;
47481;SDS011;33219;47.410;9.730;2024-03-08T12:18:50;15.10;;;8.60;;
47481;SDS011;33219;47.410;9.730;2024-03-08T12:24:07;15.32;;;8.33;;
47481;SDS011;33219;47.410;9.730;2024-03-08T12:26:37;15.60;;;9.15;;
47481;SDS011;33219;47.410;9.730;2024-03-08T12:29:19;13.90;;;7.95;;
47481;SDS011;33219;47.410;9.730;2024-03-08T12:31:54;17.67;;;9.78;;
47481;SDS011;33219;47.410;9.730;2024-03-08T12:34:24;15.40;;;8.70;;
47481;SDS011;33219;47.410;9.730;2024-03-08T12:36:54;19.75;;;9.95;;
47481;SDS011;33219;47.410;9.730;2024-03-08T12:39:23;17.82;;;10.30;;
47481;SDS011;33219;47.410;9.730;2024-03-08T12:41:54;19.30;;;9.18;;
47481;SDS011;33219;47.410;9.730;2024-03-08T12:44:32;17.98;;;10.00;;
47481;SDS011;33219;47.410;9.730;2024-03-08T12:46:59;20.35;;;9.65;;
47481;SDS011;33219;47.410;9.730;2024-03-08T12:49:28;17.27;;;8.80;;
47481;SDS011;33219;47.410;9.730;2024-03-08T12:51:56;21.42;;;10.60;;
47481;SDS011;33219;47.410;9.730;2024-03-08T12:54:24;16.80;;;9.28;;
47481;SDS011;33219;47.410;9.730;2024-03-08T12:56:52;16.65;;;8.23;;
47481;SDS011;33219;47.410;9.730;2024-03-08T12:59:20;19.25;;;9.90;;
47481;SDS011;33219;47.410;9.730;2024-03-08T13:04:19;18.23;;;9.83;;
47481;SDS011;33219;47.410;9.730;2024-03-08T13:06:52;20.30;;;9.95;;
47481;SDS011;33219;47.410;9.730;2024-03-08T13:09:21;19.07;;;10.10;;
47481;SDS011;33219;47.410;9.730;2024-03-08T13:11:51;20.43;;;10.50;;
47481;SDS011;33219;47.410;9.730;2024-03-08T13:14:21;16.30;;;9.40;;
47481;SDS011;33219;47.410;9.730;2024-03-08T13:16:53;18.27;;;9.98;;
47481;SDS011;33219;47.410;9.730;2024-03-08T13:19:18;20.17;;;9.90;;
47481;SDS011;33219;47.410;9.730;2024-03-08T13:21:47;18.82;;;9.55;;
47481;SDS011;33219;47.410;9.730;2024-03-08T13:24:15;18.48;;;10.00;;
47481;SDS011;33219;47.410;9.730;2024-03-08T13:26:44;16.15;;;8.65;;
47481;SDS011;33219;47.410;9.730;2024-03-08T13:29:12;18.20;;;9.10;;
47481;SDS011;33219;47.410;9.730;2024-03-08T13:31:40;17.82;;;9.98;;
47481;SDS011;33219;47.410;9.730;2024-03-08T13:34:08;16.93;;;9.40;;
47481;SDS011;33219;47.410;9.730;2024-03-08T13:36:37;18.57;;;9.88;;
47481;SDS011;33219;47.410;9.730;2024-03-08T13:39:06;17.32;;;8.43;;
47481;SDS011;33219;47.410;9.730;2024-03-08T13:41:36;15.88;;;8.80;;
47481;SDS011;33219;47.410;9.730;2024-03-08T13:44:05;19.15;;;10.35;;
47481;SDS011;33219;47.410;9.730;2024-03-08T13:46:33;19.42;;;10.05;;
47481;SDS011;33219;47.410;9.730;2024-03-08T13:49:05;20.77;;;10.60;;
47481;SDS011;33219;47.410;9.730;2024-03-08T13:51:35;18.00;;;10.15;;
47481;SDS011;33219;47.410;9.730;2024-03-08T13:54:03;22.22;;;10.53;;
47481;SDS011;33219;47.410;9.730;2024-03-08T13:56:32;19.23;;;10.18;;
47481;SDS011;33219;47.410;9.730;2024-03-08T13:59:00;16.10;;;9.85;;
47481;SDS011;33219;47.410;9.730;2024-03-08T14:01:28;19.23;;;10.20;;
47481;SDS011;33219;47.410;9.730;2024-03-08T14:03:56;20.35;;;10.48;;
47481;SDS011;33219;47.410;9.730;2024-03-08T14:06:23;19.48;;;10.98;;
47481;SDS011;33219;47.410;9.730;2024-03-08T14:08:51;19.92;;;10.50;;
47481;SDS011;33219;47.410;9.730;2024-03-08T14:11:20;21.80;;;10.90;;
47481;SDS011;33219;47.410;9.730;2024-03-08T14:13:49;22.40;;;12.20;;
47481;SDS011;33219;47.410;9.730;2024-03-08T14:16:18;18.95;;;10.30;;
47481;SDS011;33219;47.410;9.730;2024-03-08T14:18:45;18.73;;;11.03;;
47481;SDS011;33219;47.410;9.730;2024-03-08T14:21:13;19.00;;;10.48;;
47481;SDS011;33219;47.410;9.730;2024-03-08T14:23:41;19.85;;;11.30;;
47481;SDS011;33219;47.410;9.730;2024-03-08T14:26:09;17.40;;;9.80;;
47481;SDS011;33219;47.410;9.730;2024-03-08T14:28:37;19.75;;;10.95;;
47481;SDS011;33219;47.410;9.730;2024-03-08T14:31:04;19.48;;;11.10;;
47481;SDS011;33219;47.410;9.730;2024-03-08T14:33:33;20.60;;;10.58;;
47481;SDS011;33219;47.410;9.730;2024-03-08T14:36:03;20.45;;;11.35;;
47481;SDS011;33219;47.410;9.730;2024-03-08T14:38:31;19.87;;;10.30;;
47481;SDS011;33219;47.410;9.730;2024-03-08T14:41:00;20.30;;;9.95;;
47481;SDS011;33219;47.410;9.730;2024-03-08T14:43:29;20.25;;;10.48;;
47481;SDS011;33219;47.410;9.730;2024-03-08T14:45:58;19.25;;;10.80;;
47481;SDS011;33219;47.410;9.730;2024-03-08T14:48:25;19.30;;;10.18;;
47481;SDS011;33219;47.410;9.730;2024-03-08T14:50:53;28.00;;;11.08;;
47481;SDS011;33219;47.410;9.730;2024-03-08T14:53:20;18.40;;;10.75;;
47481;SDS011;33219;47.410;9.730;2024-03-08T14:55:48;20.50;;;11.12;;
47481;SDS011;33219;47.410;9.730;2024-03-08T14:58:16;20.00;;;10.63;;
47481;SDS011;33219;47.410;9.730;2024-03-08T15:00:44;24.57;;;11.80;;
47481;SDS011;33219;47.410;9.730;2024-03-08T15:03:11;21.73;;;11.60;;
47481;SDS011;33219;47.410;9.730;2024-03-08T15:05:40;21.33;;;11.08;;
47481;SDS011;33219;47.410;9.730;2024-03-08T15:08:10;20.92;;;11.45;;
47481;SDS011;33219;47.410;9.730;2024-03-08T15:10:39;22.30;;;11.70;;
47481;SDS011;33219;47.410;9.730;2024-03-08T15:13:06;20.97;;;11.65;;
47481;SDS011;33219;47.410;9.730;2024-03-08T15:15:36;18.90;;;10.30;;
47481;SDS011;33219;47.410;9.730;2024-03-08T15:18:05;20.68;;;10.28;;
47481;SDS011;33219;47.410;9.730;2024-03-08T15:20:34;20.57;;;10.88;;
47481;SDS011;33219;47.410;9.730;2024-03-08T15:23:01;21.75;;;10.48;;
47481;SDS011;33219;47.410;9.730;2024-03-08T15:25:29;20.50;;;11.45;;
47481;SDS011;33219;47.410;9.730;2024-03-08T15:27:59;19.20;;;10.45;;
47481;SDS011;33219;47.410;9.730;2024-03-08T15:30:28;19.52;;;10.38;;
47481;SDS011;33219;47.410;9.730;2024-03-08T15:32:56;21.00;;;10.72;;
47481;SDS011;33219;47.410;9.730;2024-03-08T15:35:26;19.67;;;11.18;;
47481;SDS011;33219;47.410;9.730;2024-03-08T15:37:53;18.48;;;10.75;;
47481;SDS011;33219;47.410;9.730;2024-03-08T15:40:23;19.70;;;10.55;;
47481;SDS011;33219;47.410;9.730;2024-03-08T15:42:56;21.25;;;11.48;;
47481;SDS011;33219;47.410;9.730;2024-03-08T15:45:24;21.30;;;11.38;;
47481;SDS011;33219;47.410;9.730;2024-03-08T15:47:54;19.50;;;10.40;;
47481;SDS011;33219;47.410;9.730;2024-03-08T15:50:22;21.12;;;11.40;;
47481;SDS011;33219;47.410;9.730;2024-03-08T15:52:50;23.65;;;12.25;;
47481;SDS011;33219;47.410;9.730;2024-03-08T15:55:20;25.08;;;11.88;;
47481;SDS011;33219;47.410;9.730;2024-03-08T16:00:21;23.67;;;10.65;;
47481;SDS011;33219;47.410;9.730;2024-03-08T16:03:03;20.62;;;10.88;;
47481;SDS011;33219;47.410;9.730;2024-03-08T16:05:33;20.62;;;11.40;;
47481;SDS011;33219;47.410;9.730;2024-03-08T16:08:00;24.55;;;11.73;;
47481;SDS011;33219;47.410;9.730;2024-03-08T16:10:28;21.65;;;11.53;;
47481;SDS011;33219;47.410;9.730;2024-03-08T16:12:59;21.50;;;11.60;;
47481;SDS011;33219;47.410;9.730;2024-03-08T16:15:28;21.62;;;11.12;;
47481;SDS011;33219;47.410;9.730;2024-03-08T16:17:56;20.70;;;11.50;;
47481;SDS011;33219;47.410;9.730;2024-03-08T16:20:23;23.30;;;11.55;;
47481;SDS011;33219;47.410;9.730;2024-03-08T16:22:51;23.18;;;11.80;;
47481;SDS011;33219;47.410;9.730;2024-03-08T16:25:19;24.65;;;12.10;;
47481;SDS011;33219;47.410;9.730;2024-03-08T16:27:50;23.50;;;12.20;;
47481;SDS011;33219;47.410;9.730;2024-03-08T16:30:17;22.58;;;12.07;;
47481;SDS011;33219;47.410;9.730;2024-03-08T16:32:46;22.93;;;12.80;;
47481;SDS011;33219;47.410;9.730;2024-03-08T16:35:15;23.30;;;12.65;;
47481;SDS011;33219;47.410;9.730;2024-03-08T16:37:43;22.48;;;12.03;;
47481;SDS011;33219;47.410;9.730;2024-03-08T16:40:13;26.57;;;12.75;;
47481;SDS011;33219;47.410;9.730;2024-03-08T16:42:43;22.85;;;11.63;;
47481;SDS011;33219;47.410;9.730;2024-03-08T16:45:16;23.57;;;12.53;;
47481;SDS011;33219;47.410;9.730;2024-03-08T16:47:40;25.80;;;12.55;;
47481;SDS011;33219;47.410;9.730;2024-03-08T16:50:08;23.18;;;11.78;;
47481;SDS011;33219;47.410;9.730;2024-03-08T16:52:38;24.12;;;11.97;;
47481;SDS011;33219;47.410;9.730;2024-03-08T16:55:06;21.75;;;11.03;;
47481;SDS011;33219;47.410;9.730;2024-03-08T16:57:36;23.60;;;12.63;;
47481;SDS011;33219;47.410;9.730;2024-03-08T17:00:03;25.70;;;13.18;;
47481;SDS011;33219;47.410;9.730;2024-03-08T17:02:33;26.17;;;12.90;;
47481;SDS011;33219;47.410;9.730;2024-03-08T17:05:01;25.70;;;12.50;;
47481;SDS011;33219;47.410;9.730;2024-03-08T17:07:30;23.67;;;12.80;;
47481;SDS011;33219;47.410;9.730;2024-03-08T17:10:00;23.57;;;12.33;;
47481;SDS011;33219;47.410;9.730;2024-03-08T17:12:29;26.02;;;13.38;;
47481;SDS011;33219;47.410;9.730;2024-03-08T17:14:56;24.65;;;12.60;;
47481;SDS011;33219;47.410;9.730;2024-03-08T17:17:25;25.05;;;12.75;;
47481;SDS011;33219;47.410;9.730;2024-03-08T17:19:52;25.52;;;12.98;;
47481;SDS011;33219;47.410;9.730;2024-03-08T17:22:20;27.80;;;13.78;;
47481;SDS011;33219;47.410;9.730;2024-03-08T17:24:50;27.40;;;12.85;;
47481;SDS011;33219;47.410;9.730;2024-03-08T17:27:21;26.85;;;13.78;;
47481;SDS011;33219;47.410;9.730;2024-03-08T17:29:50;26.00;;;12.93;;
47481;SDS011;33219;47.410;9.730;2024-03-08T17:32:20;27.80;;;12.65;;
47481;SDS011;33219;47.410;9.730;2024-03-08T17:34:47;26.07;;;12.85;;
47481;SDS011;33219;47.410;9.730;2024-03-08T17:37:16;26.68;;;12.80;;
47481;SDS011;33219;47.410;9.730;2024-03-08T17:39:45;27.48;;;12.85;;
47481;SDS011;33219;47.410;9.730;2024-03-08T17:42:12;28.42;;;13.90;;
47481;SDS011;33219;47.410;9.730;2024-03-08T17:44:40;28.38;;;13.85;;
47481;SDS011;33219;47.410;9.730;2024-03-08T17:47:07;28.87;;;14.63;;
47481;SDS011;33219;47.410;9.730;2024-03-08T17:49:35;31.00;;;14.80;;
47481;SDS011;33219;47.410;9.730;2024-03-08T17:52:04;20.37;;;11.15;;
47481;SDS011;33219;47.410;9.730;2024-03-08T17:54:32;17.77;;;8.60;;
47481;SDS011;33219;47.410;9.730;2024-03-08T17:57:00;9.65;;;6.22;;
47481;SDS011;33219;47.410;9.730;2024-03-08T17:59:27;8.28;;;4.87;;